KLFI/LFI METAR and TAF weather

Enter ICAO airport designator
Station Type Date Time Source
KLFI METAR 2020/01/24 09:11 UTC NOAA

KLFI 240911Z 04004KT 10SM SCT020 05/05 A3024 RMK AO2A SLP247 $


Station Type Date Time Source
KLFI Decoded METAR 2020/01/24 09:11 UTC NOAA

Langley Air Force Base, VA, United States (KLFI) 37-05N 076-21W 6M
Jan 24, 2020 - 04:11 AM EST / 2020.01.24 0911 UTC
Wind: from the NE (040 degrees) at 5 MPH (4 KT):0
Visibility: 10 mile(s):0
Sky conditions: partly cloudy
Temperature: 41 F (5 C)
Dew Point: 41 F (5 C)
Relative Humidity: 100%
Pressure (altimeter): 30.24 in. Hg (1024 hPa)
ob: KLFI 240911Z 04004KT 10SM SCT020 05/05 A3024 RMK AO2A SLP247
cycle: 9

Station Type Date Time Source
KLFI TAF 2020/01/24 02:06 UTC NOAA

TAF KLFI 240200Z 2402/2508 05009KT 9999 BKN060 OVC180 QNH3023INS
BECMG 2405/2406 07009KT 9999 BKN025 OVC180 QNH3020INS
BECMG 2417/2418 07009KT 9999 BKN080 OVC180 QNH2997INS
BECMG 2505/2506 12012KT 9999 OVC020 QNH2985INS TX13/2418Z TN04/2402Z

Example: see airport list